sensor_id;sensor_type;location;lat;lon;timestamp;pressure;altitude;pressure_sealevel;temperature;humidity
36284;BME280;56085;48.910;9.478;2023-02-21T00:00:41;98662.94;;;3.28;72.39
36284;BME280;56085;48.910;9.478;2023-02-21T00:03:24;98662.94;;;3.14;72.73
36284;BME280;56085;48.910;9.478;2023-02-21T00:06:08;98646.13;;;3.21;73.15
36284;BME280;56085;48.910;9.478;2023-02-21T00:08:52;98648.56;;;3.22;73.29
36284;BME280;56085;48.910;9.478;2023-02-21T00:11:40;98655.44;;;3.20;73.13
36284;BME280;56085;48.910;9.478;2023-02-21T00:14:24;98646.84;;;3.12;73.15
36284;BME280;56085;48.910;9.478;2023-02-21T00:17:07;98659.19;;;3.10;73.39
36284;BME280;56085;48.910;9.478;2023-02-21T00:19:51;98653.81;;;3.05;73.60
36284;BME280;56085;48.910;9.478;2023-02-21T00:22:35;98657.25;;;3.10;73.99
36284;BME280;56085;48.910;9.478;2023-02-21T00:25:19;98648.47;;;3.13;73.63
36284;BME280;56085;48.910;9.478;2023-02-21T00:28:02;98650.09;;;3.14;74.01
36284;BME280;56085;48.910;9.478;2023-02-21T00:30:46;98638.53;;;3.18;74.03
36284;BME280;56085;48.910;9.478;2023-02-21T00:33:32;98642.19;;;3.13;74.29
36284;BME280;56085;48.910;9.478;2023-02-21T00:36:17;98647.63;;;2.99;74.69
36284;BME280;56085;48.910;9.478;2023-02-21T00:39:01;98643.19;;;3.03;74.61
36284;BME280;56085;48.910;9.478;2023-02-21T00:41:45;98633.69;;;3.01;74.82
36284;BME280;56085;48.910;9.478;2023-02-21T00:44:29;98632.78;;;2.91;74.80
36284;BME280;56085;48.910;9.478;2023-02-21T00:47:12;98631.63;;;2.78;74.81
36284;BME280;56085;48.910;9.478;2023-02-21T00:49:56;98630.44;;;2.85;74.67
36284;BME280;56085;48.910;9.478;2023-02-21T00:52:40;98639.00;;;2.64;75.17
36284;BME280;56085;48.910;9.478;2023-02-21T00:55:24;98643.28;;;2.70;75.14
36284;BME280;56085;48.910;9.478;2023-02-21T00:58:07;98633.03;;;2.62;74.71
36284;BME280;56085;48.910;9.478;2023-02-21T01:00:51;98633.47;;;2.69;75.55
36284;BME280;56085;48.910;9.478;2023-02-21T01:03:35;98625.88;;;2.66;75.55
36284;BME280;56085;48.910;9.478;2023-02-21T01:06:19;98628.59;;;2.66;75.38
36284;BME280;56085;48.910;9.478;2023-02-21T01:09:03;98628.06;;;2.64;75.89
36284;BME280;56085;48.910;9.478;2023-02-21T01:11:46;98635.38;;;2.69;75.54
36284;BME280;56085;48.910;9.478;2023-02-21T01:14:32;98636.13;;;2.55;75.76
36284;BME280;56085;48.910;9.478;2023-02-21T01:17:15;98625.81;;;2.38;76.13
36284;BME280;56085;48.910;9.478;2023-02-21T01:19:59;98627.34;;;2.44;75.92
36284;BME280;56085;48.910;9.478;2023-02-21T01:22:44;98622.91;;;2.49;76.23
36284;BME280;56085;48.910;9.478;2023-02-21T01:25:28;98629.09;;;2.54;76.38
36284;BME280;56085;48.910;9.478;2023-02-21T01:28:11;98627.53;;;2.48;76.56
36284;BME280;56085;48.910;9.478;2023-02-21T01:30:55;98622.78;;;2.54;76.90
36284;BME280;56085;48.910;9.478;2023-02-21T01:33:39;98617.75;;;2.47;76.65
36284;BME280;56085;48.910;9.478;2023-02-21T01:36:23;98620.53;;;2.42;76.82
36284;BME280;56085;48.910;9.478;2023-02-21T01:39:07;98622.13;;;2.29;77.04
36284;BME280;56085;48.910;9.478;2023-02-21T01:41:52;98618.53;;;2.34;77.40
36284;BME280;56085;48.910;9.478;2023-02-21T01:44:37;98618.22;;;2.35;77.09
36284;BME280;56085;48.910;9.478;2023-02-21T01:47:21;98620.13;;;2.02;76.96
36284;BME280;56085;48.910;9.478;2023-02-21T01:50:10;98623.16;;;2.00;76.85
36284;BME280;56085;48.910;9.478;2023-02-21T01:52:55;98608.78;;;1.95;76.80
36284;BME280;56085;48.910;9.478;2023-02-21T01:55:39;98609.41;;;2.05;77.59
36284;BME280;56085;48.910;9.478;2023-02-21T01:58:24;98618.63;;;2.09;77.57
36284;BME280;56085;48.910;9.478;2023-02-21T02:01:11;98612.28;;;2.14;77.51
36284;BME280;56085;48.910;9.478;2023-02-21T02:03:58;98615.97;;;2.04;77.91
36284;BME280;56085;48.910;9.478;2023-02-21T02:06:41;98606.88;;;1.76;77.74
36284;BME280;56085;48.910;9.478;2023-02-21T02:09:25;98604.72;;;1.92;77.42
36284;BME280;56085;48.910;9.478;2023-02-21T02:17:45;98599.41;;;1.82;77.98
36284;BME280;56085;48.910;9.478;2023-02-21T02:20:38;98610.78;;;1.70;77.82
36284;BME280;56085;48.910;9.478;2023-02-21T02:23:15;98607.97;;;1.56;78.25
36284;BME280;56085;48.910;9.478;2023-02-21T02:31:02;98599.63;;;1.66;78.39
36284;BME280;56085;48.910;9.478;2023-02-21T02:38:32;98590.97;;;1.64;79.50
36284;BME280;56085;48.910;9.478;2023-02-21T02:41:03;98590.97;;;1.64;79.42
36284;BME280;56085;48.910;9.478;2023-02-21T02:43:33;98592.06;;;1.63;79.86
36284;BME280;56085;48.910;9.478;2023-02-21T02:46:16;98592.78;;;1.50;79.75
36284;BME280;56085;48.910;9.478;2023-02-21T02:48:45;98589.31;;;1.44;79.88
36284;BME280;56085;48.910;9.478;2023-02-21T02:51:12;98592.03;;;1.44;79.81
36284;BME280;56085;48.910;9.478;2023-02-21T02:53:38;98590.56;;;1.52;80.42
36284;BME280;56085;48.910;9.478;2023-02-21T02:56:05;98592.34;;;1.43;80.47
36284;BME280;56085;48.910;9.478;2023-02-21T02:58:32;98583.06;;;1.44;80.47
36284;BME280;56085;48.910;9.478;2023-02-21T03:11:36;98583.44;;;1.37;80.66
36284;BME280;56085;48.910;9.478;2023-02-21T03:14:08;98581.22;;;1.39;81.10
36284;BME280;56085;48.910;9.478;2023-02-21T03:16:38;98585.34;;;1.36;80.69
36284;BME280;56085;48.910;9.478;2023-02-21T03:19:07;98583.22;;;1.33;81.49
36284;BME280;56085;48.910;9.478;2023-02-21T03:21:35;98587.28;;;1.36;81.43
36284;BME280;56085;48.910;9.478;2023-02-21T03:24:03;98589.69;;;1.37;81.55
36284;BME280;56085;48.910;9.478;2023-02-21T03:26:31;98584.00;;;1.34;81.71
36284;BME280;56085;48.910;9.478;2023-02-21T03:28:57;98576.66;;;1.34;81.28
36284;BME280;56085;48.910;9.478;2023-02-21T03:31:29;98579.09;;;1.36;81.87
36284;BME280;56085;48.910;9.478;2023-02-21T03:33:57;98578.81;;;1.37;82.08
36284;BME280;56085;48.910;9.478;2023-02-21T03:36:22;98577.22;;;1.31;81.99
36284;BME280;56085;48.910;9.478;2023-02-21T03:38:47;98577.75;;;1.33;82.09
36284;BME280;56085;48.910;9.478;2023-02-21T03:41:13;98583.06;;;1.25;82.13
36284;BME280;56085;48.910;9.478;2023-02-21T03:43:39;98585.97;;;1.09;81.74
36284;BME280;56085;48.910;9.478;2023-02-21T03:46:04;98581.09;;;1.06;81.91
36284;BME280;56085;48.910;9.478;2023-02-21T03:48:29;98587.88;;;1.09;81.43
36284;BME280;56085;48.910;9.478;2023-02-21T03:50:54;98585.66;;;1.11;82.18
36284;BME280;56085;48.910;9.478;2023-02-21T03:53:20;98585.38;;;1.12;82.22
36284;BME280;56085;48.910;9.478;2023-02-21T03:55:45;98585.66;;;1.11;82.21
36284;BME280;56085;48.910;9.478;2023-02-21T03:58:10;98589.84;;;1.03;81.75
36284;BME280;56085;48.910;9.478;2023-02-21T04:00:35;98582.19;;;1.05;81.99
36284;BME280;56085;48.910;9.478;2023-02-21T04:03:00;98581.47;;;0.99;81.85
36284;BME280;56085;48.910;9.478;2023-02-21T04:05:26;98572.47;;;0.99;82.01
36284;BME280;56085;48.910;9.478;2023-02-21T04:07:51;98586.34;;;1.02;81.98
36284;BME280;56085;48.910;9.478;2023-02-21T04:10:16;98580.66;;;0.99;82.43
36284;BME280;56085;48.910;9.478;2023-02-21T04:12:41;98585.00;;;1.00;81.91
36284;BME280;56085;48.910;9.478;2023-02-21T04:15:06;98583.94;;;0.96;82.80
36284;BME280;56085;48.910;9.478;2023-02-21T04:17:32;98588.31;;;0.97;82.68
36284;BME280;56085;48.910;9.478;2023-02-21T04:19:57;98582.81;;;0.78;82.04
36284;BME280;56085;48.910;9.478;2023-02-21T04:22:22;98578.13;;;0.83;82.12
36284;BME280;56085;48.910;9.478;2023-02-21T04:24:47;98575.03;;;0.90;82.25
36284;BME280;56085;48.910;9.478;2023-02-21T04:27:13;98572.78;;;0.97;82.53
36284;BME280;56085;48.910;9.478;2023-02-21T04:29:38;98571.09;;;1.01;82.39
36284;BME280;56085;48.910;9.478;2023-02-21T04:32:03;98575.03;;;0.90;83.04
36284;BME280;56085;48.910;9.478;2023-02-21T04:34:28;98571.03;;;0.82;82.77
36284;BME280;56085;48.910;9.478;2023-02-21T04:36:54;98571.03;;;0.82;83.25
36284;BME280;56085;48.910;9.478;2023-02-21T04:39:19;98568.38;;;0.77;82.63
36284;BME280;56085;48.910;9.478;2023-02-21T04:41:44;98565.06;;;0.80;82.78
36284;BME280;56085;48.910;9.478;2023-02-21T04:44:09;98563.94;;;0.86;82.68
36284;BME280;56085;48.910;9.478;2023-02-21T04:46:35;98562.81;;;0.87;83.25
36284;BME280;56085;48.910;9.478;2023-02-21T04:49:00;98566.28;;;0.93;82.76
36284;BME280;56085;48.910;9.478;2023-02-21T04:51:25;98567.16;;;0.89;83.21
36284;BME280;56085;48.910;9.478;2023-02-21T04:53:51;98562.59;;;0.84;83.58
36284;BME280;56085;48.910;9.478;2023-02-21T04:56:17;98566.97;;;0.80;83.31
36284;BME280;56085;48.910;9.478;2023-02-21T04:58:43;98569.13;;;0.83;83.15
36284;BME280;56085;48.910;9.478;2023-02-21T05:01:09;98572.44;;;0.80;83.20
36284;BME280;56085;48.910;9.478;2023-02-21T05:03:34;98578.28;;;0.68;83.02
36284;BME280;56085;48.910;9.478;2023-02-21T05:06:00;98570.06;;;0.73;83.58
36284;BME280;56085;48.910;9.478;2023-02-21T05:08:25;98564.91;;;0.72;82.85
36284;BME280;56085;48.910;9.478;2023-02-21T05:10:50;98562.19;;;0.72;83.14
36284;BME280;56085;48.910;9.478;2023-02-21T05:13:15;98556.63;;;0.58;82.78
36284;BME280;56085;48.910;9.478;2023-02-21T05:15:40;98559.84;;;0.60;83.27
36284;BME280;56085;48.910;9.478;2023-02-21T05:18:06;98557.66;;;0.62;84.04
36284;BME280;56085;48.910;9.478;2023-02-21T05:20:31;98554.06;;;0.66;84.06
36284;BME280;56085;48.910;9.478;2023-02-21T05:22:56;98556.63;;;0.58;83.43
36284;BME280;56085;48.910;9.478;2023-02-21T05:25:21;98562.41;;;0.51;83.64
36284;BME280;56085;48.910;9.478;2023-02-21T05:27:47;98561.88;;;0.49;83.81
36284;BME280;56085;48.910;9.478;2023-02-21T05:30:14;98560.78;;;0.50;83.80
36284;BME280;56085;48.910;9.478;2023-02-21T05:32:39;98547.94;;;0.56;83.71
36284;BME280;56085;48.910;9.478;2023-02-21T05:35:05;98547.94;;;0.56;83.59
36284;BME280;56085;48.910;9.478;2023-02-21T05:37:30;98553.84;;;0.63;84.00
36284;BME280;56085;48.910;9.478;2023-02-21T05:39:56;98549.72;;;0.65;84.42
36284;BME280;56085;48.910;9.478;2023-02-21T05:42:21;98561.56;;;0.56;84.21
36284;BME280;56085;48.910;9.478;2023-02-21T05:44:46;98561.59;;;0.50;84.24
36284;BME280;56085;48.910;9.478;2023-02-21T05:47:12;98560.91;;;0.40;84.56
36284;BME280;56085;48.910;9.478;2023-02-21T05:49:38;98563.72;;;0.29;83.91
36284;BME280;56085;48.910;9.478;2023-02-21T05:52:03;98566.44;;;0.29;83.76
36284;BME280;56085;48.910;9.478;2023-02-21T05:54:29;98566.38;;;0.34;84.04
36284;BME280;56085;48.910;9.478;2023-02-21T05:56:54;98574.31;;;0.31;84.33
36284;BME280;56085;48.910;9.478;2023-02-21T05:59:19;98565.38;;;0.25;83.86
36284;BME280;56085;48.910;9.478;2023-02-21T06:01:45;98574.34;;;0.26;83.63
36284;BME280;56085;48.910;9.478;2023-02-21T06:04:11;98578.16;;;0.25;84.55
36284;BME280;56085;48.910;9.478;2023-02-21T06:06:36;98588.31;;;0.19;84.09
36284;BME280;56085;48.910;9.478;2023-02-21T06:09:02;98585.09;;;0.12;84.09
36284;BME280;56085;48.910;9.478;2023-02-21T06:11:28;98585.84;;;0.17;84.01
36284;BME280;56085;48.910;9.478;2023-02-21T06:13:55;98586.94;;;0.16;83.69
36284;BME280;56085;48.910;9.478;2023-02-21T06:16:21;98587.56;;;0.08;84.24
36284;BME280;56085;48.910;9.478;2023-02-21T06:18:50;98584.63;;;-0.01;84.59
36284;BME280;56085;48.910;9.478;2023-02-21T06:21:15;98582.97;;;0.04;84.24
36284;BME280;56085;48.910;9.478;2023-02-21T06:23:40;98584.84;;;0.08;84.23
36284;BME280;56085;48.910;9.478;2023-02-21T06:26:06;98583.97;;;0.13;84.70
36284;BME280;56085;48.910;9.478;2023-02-21T06:28:31;98581.53;;;0.11;85.34
36284;BME280;56085;48.910;9.478;2023-02-21T06:30:56;98577.69;;;0.17;85.31
36284;BME280;56085;48.910;9.478;2023-02-21T06:33:22;98580.13;;;0.19;84.83
36284;BME280;56085;48.910;9.478;2023-02-21T06:35:47;98578.41;;;0.28;85.25
36284;BME280;56085;48.910;9.478;2023-02-21T06:38:12;98569.09;;;0.34;85.07
36284;BME280;56085;48.910;9.478;2023-02-21T06:40:38;98581.25;;;0.42;85.14
36284;BME280;56085;48.910;9.478;2023-02-21T06:43:03;98582.59;;;0.45;85.48
36284;BME280;56085;48.910;9.478;2023-02-21T06:45:28;98578.50;;;0.47;85.46
36284;BME280;56085;48.910;9.478;2023-02-21T06:47:53;98580.63;;;0.50;85.97
36284;BME280;56085;48.910;9.478;2023-02-21T06:50:18;98564.81;;;0.52;86.53
36284;BME280;56085;48.910;9.478;2023-02-21T06:52:44;98567.03;;;0.50;85.73
36284;BME280;56085;48.910;9.478;2023-02-21T06:55:09;98574.56;;;0.59;86.21
36284;BME280;56085;48.910;9.478;2023-02-21T06:57:34;98577.53;;;0.62;85.91
36284;BME280;56085;48.910;9.478;2023-02-21T06:59:59;98576.94;;;0.65;85.67
36284;BME280;56085;48.910;9.478;2023-02-21T07:02:24;98569.25;;;0.73;86.42
36284;BME280;56085;48.910;9.478;2023-02-21T07:04:49;98572.78;;;0.73;85.71
36284;BME280;56085;48.910;9.478;2023-02-21T07:07:15;98571.44;;;0.71;86.23
36284;BME280;56085;48.910;9.478;2023-02-21T07:09:40;98570.59;;;0.75;85.93
36284;BME280;56085;48.910;9.478;2023-02-21T07:12:05;98583.09;;;0.76;85.51
36284;BME280;56085;48.910;9.478;2023-02-21T07:14:32;98579.50;;;0.81;85.15
36284;BME280;56085;48.910;9.478;2023-02-21T07:16:57;98574.28;;;0.84;85.19
36284;BME280;56085;48.910;9.478;2023-02-21T07:19:23;98569.09;;;0.88;85.67
36284;BME280;56085;48.910;9.478;2023-02-21T07:21:48;98579.31;;;0.96;85.24
36284;BME280;56085;48.910;9.478;2023-02-21T07:24:13;98570.84;;;0.98;84.79
36284;BME280;56085;48.910;9.478;2023-02-21T07:26:38;98582.72;;;1.07;84.70
36284;BME280;56085;48.910;9.478;2023-02-21T07:29:04;98583.47;;;1.13;84.58
36284;BME280;56085;48.910;9.478;2023-02-21T07:31:30;98580.91;;;1.21;85.00
36284;BME280;56085;48.910;9.478;2023-02-21T07:33:55;98584.09;;;1.29;84.55
36284;BME280;56085;48.910;9.478;2023-02-21T07:36:20;98590.00;;;1.36;85.42
36284;BME280;56085;48.910;9.478;2023-02-21T07:38:46;98582.78;;;1.45;85.22
36284;BME280;56085;48.910;9.478;2023-02-21T07:41:12;98581.31;;;1.53;84.64
36284;BME280;56085;48.910;9.478;2023-02-21T07:43:38;98589.03;;;1.65;85.42
36284;BME280;56085;48.910;9.478;2023-02-21T07:46:03;98584.31;;;1.70;84.69
36284;BME280;56085;48.910;9.478;2023-02-21T07:48:28;98584.69;;;1.83;84.59
36284;BME280;56085;48.910;9.478;2023-02-21T07:50:53;98588.84;;;1.94;85.20
36284;BME280;56085;48.910;9.478;2023-02-21T07:53:18;98594.16;;;2.04;84.67
36284;BME280;56085;48.910;9.478;2023-02-21T07:55:44;98595.09;;;2.14;84.63
36284;BME280;56085;48.910;9.478;2023-02-21T07:58:09;98593.53;;;2.26;84.88
36284;BME280;56085;48.910;9.478;2023-02-21T08:00:34;98588.50;;;2.34;85.17
36284;BME280;56085;48.910;9.478;2023-02-21T08:02:59;98588.91;;;2.41;84.49
36284;BME280;56085;48.910;9.478;2023-02-21T08:05:25;98586.81;;;2.52;84.41
36284;BME280;56085;48.910;9.478;2023-02-21T08:07:50;98585.53;;;2.63;84.37
36284;BME280;56085;48.910;9.478;2023-02-21T08:10:20;98580.38;;;2.75;84.00
36284;BME280;56085;48.910;9.478;2023-02-21T08:12:46;98578.53;;;2.85;84.26
36284;BME280;56085;48.910;9.478;2023-02-21T08:15:11;98583.31;;;2.93;84.05
36284;BME280;56085;48.910;9.478;2023-02-21T08:17:36;98586.63;;;3.04;83.37
36284;BME280;56085;48.910;9.478;2023-02-21T08:20:01;98590.47;;;3.17;83.65
36284;BME280;56085;48.910;9.478;2023-02-21T08:22:30;98589.16;;;3.28;82.98
36284;BME280;56085;48.910;9.478;2023-02-21T08:24:55;98588.31;;;3.41;82.65
36284;BME280;56085;48.910;9.478;2023-02-21T08:27:21;98589.78;;;3.61;82.66
36284;BME280;56085;48.910;9.478;2023-02-21T08:29:48;98594.09;;;3.76;82.45
36284;BME280;56085;48.910;9.478;2023-02-21T08:32:13;98592.34;;;3.94;82.24
36284;BME280;56085;48.910;9.478;2023-02-21T08:34:38;98582.31;;;4.12;82.03
36284;BME280;56085;48.910;9.478;2023-02-21T08:37:04;98595.81;;;4.31;81.85
36284;BME280;56085;48.910;9.478;2023-02-21T08:39:38;98594.13;;;4.44;81.83
36284;BME280;56085;48.910;9.478;2023-02-21T08:42:03;98595.34;;;4.61;81.49
36284;BME280;56085;48.910;9.478;2023-02-21T08:44:28;98598.31;;;4.82;81.46
36284;BME280;56085;48.910;9.478;2023-02-21T08:46:53;98592.78;;;5.04;81.79
36284;BME280;56085;48.910;9.478;2023-02-21T08:49:19;98596.03;;;5.15;82.04
36284;BME280;56085;48.910;9.478;2023-02-21T08:51:44;98589.94;;;5.36;81.83
36284;BME280;56085;48.910;9.478;2023-02-21T08:54:09;98599.03;;;5.54;81.56
36284;BME280;56085;48.910;9.478;2023-02-21T08:56:34;98595.19;;;5.81;81.90
36284;BME280;56085;48.910;9.478;2023-02-21T08:58:59;98595.06;;;6.13;81.89
36284;BME280;56085;48.910;9.478;2023-02-21T09:01:29;98588.56;;;6.26;81.16
36284;BME280;56085;48.910;9.478;2023-02-21T09:03:55;98594.50;;;6.54;81.17
36284;BME280;56085;48.910;9.478;2023-02-21T09:06:20;98591.34;;;6.82;80.44
36284;BME280;56085;48.910;9.478;2023-02-21T09:08:45;98591.28;;;6.99;79.92
36284;BME280;56085;48.910;9.478;2023-02-21T09:11:10;98585.38;;;7.19;79.82
36284;BME280;56085;48.910;9.478;2023-02-21T09:13:35;98589.44;;;7.42;79.75
36284;BME280;56085;48.910;9.478;2023-02-21T09:16:01;98582.47;;;7.66;78.48
36284;BME280;56085;48.910;9.478;2023-02-21T09:18:27;98585.91;;;7.84;78.34
36284;BME280;56085;48.910;9.478;2023-02-21T09:20:53;98592.88;;;8.02;78.29
36284;BME280;56085;48.910;9.478;2023-02-21T09:23:21;98586.34;;;8.28;78.10
36284;BME280;56085;48.910;9.478;2023-02-21T09:25:47;98590.41;;;8.43;77.82
36284;BME280;56085;48.910;9.478;2023-02-21T09:28:13;98585.09;;;8.59;77.76
36284;BME280;56085;48.910;9.478;2023-02-21T09:30:38;98582.25;;;8.80;77.07
36284;BME280;56085;48.910;9.478;2023-02-21T09:33:03;98581.34;;;9.01;76.43
36284;BME280;56085;48.910;9.478;2023-02-21T09:35:29;98587.22;;;9.24;75.63
36284;BME280;56085;48.910;9.478;2023-02-21T09:37:55;98590.56;;;9.42;74.96
36284;BME280;56085;48.910;9.478;2023-02-21T09:43:03;98578.75;;;9.94;73.43
36284;BME280;56085;48.910;9.478;2023-02-21T09:45:30;98574.44;;;10.09;73.10
36284;BME280;56085;48.910;9.478;2023-02-21T09:47:57;98581.81;;;10.34;72.62
36284;BME280;56085;48.910;9.478;2023-02-21T09:50:25;98580.34;;;10.52;72.03
36284;BME280;56085;48.910;9.478;2023-02-21T09:52:55;98577.63;;;10.68;71.08
36284;BME280;56085;48.910;9.478;2023-02-21T09:55:25;98582.56;;;10.91;70.43
36284;BME280;56085;48.910;9.478;2023-02-21T09:57:51;98580.31;;;11.12;69.68
36284;BME280;56085;48.910;9.478;2023-02-21T10:00:21;98571.09;;;11.24;69.33
36284;BME280;56085;48.910;9.478;2023-02-21T10:03:05;98581.84;;;11.26;68.83
36284;BME280;56085;48.910;9.478;2023-02-21T10:05:41;98577.06;;;11.42;68.38
36284;BME280;56085;48.910;9.478;2023-02-21T10:13:45;98587.22;;;11.90;66.99
36284;BME280;56085;48.910;9.478;2023-02-21T10:18:18;98580.69;;;12.17;65.89
36284;BME280;56085;48.910;9.478;2023-02-21T10:20:48;98573.53;;;12.36;65.84
36284;BME280;56085;48.910;9.478;2023-02-21T10:23:22;98574.97;;;12.49;65.19
36284;BME280;56085;48.910;9.478;2023-02-21T10:25:50;98570.88;;;12.63;64.89
36284;BME280;56085;48.910;9.478;2023-02-21T10:28:17;98576.25;;;12.75;64.49
36284;BME280;56085;48.910;9.478;2023-02-21T10:30:43;98581.75;;;12.95;63.93
36284;BME280;56085;48.910;9.478;2023-02-21T10:33:08;98574.03;;;13.07;63.37
36284;BME280;56085;48.910;9.478;2023-02-21T10:35:37;98566.34;;;13.24;62.87
36284;BME280;56085;48.910;9.478;2023-02-21T10:38:03;98575.13;;;13.26;62.16
36284;BME280;56085;48.910;9.478;2023-02-21T10:40:34;98578.16;;;13.40;62.01
36284;BME280;56085;48.910;9.478;2023-02-21T10:43:02;98570.47;;;13.57;61.35
36284;BME280;56085;48.910;9.478;2023-02-21T10:45:31;98573.06;;;13.73;60.93
36284;BME280;56085;48.910;9.478;2023-02-21T10:47:59;98567.75;;;13.91;60.42
36284;BME280;56085;48.910;9.478;2023-02-21T10:50:42;98576.75;;;14.11;59.72
36284;BME280;56085;48.910;9.478;2023-02-21T10:53:09;98577.53;;;14.11;59.06
36284;BME280;56085;48.910;9.478;2023-02-21T10:55:49;98569.44;;;14.29;58.42
36284;BME280;56085;48.910;9.478;2023-02-21T10:58:30;98569.50;;;14.37;57.89
36284;BME280;56085;48.910;9.478;2023-02-21T11:00:55;98560.50;;;14.51;57.39
36284;BME280;56085;48.910;9.478;2023-02-21T11:03:21;98556.75;;;14.66;56.80
36284;BME280;56085;48.910;9.478;2023-02-21T11:05:51;98548.03;;;14.71;56.26
36284;BME280;56085;48.910;9.478;2023-02-21T11:08:32;98548.63;;;14.95;55.77
36284;BME280;56085;48.910;9.478;2023-02-21T11:10:58;98551.97;;;15.11;55.25
36284;BME280;56085;48.910;9.478;2023-02-21T11:13:24;98536.53;;;15.21;54.70
36284;BME280;56085;48.910;9.478;2023-02-21T11:16:06;98539.41;;;15.32;54.50
36284;BME280;56085;48.910;9.478;2023-02-21T11:18:33;98537.56;;;15.54;54.15
36284;BME280;56085;48.910;9.478;2023-02-21T11:21:08;98515.31;;;15.65;53.43
36284;BME280;56085;48.910;9.478;2023-02-21T11:23:34;98525.78;;;15.79;52.93
36284;BME280;56085;48.910;9.478;2023-02-21T11:26:06;98523.09;;;16.00;52.48
36284;BME280;56085;48.910;9.478;2023-02-21T11:28:36;98512.81;;;16.22;52.11
36284;BME280;56085;48.910;9.478;2023-02-21T11:31:07;98512.44;;;16.31;51.64
36284;BME280;56085;48.910;9.478;2023-02-21T11:33:36;98509.69;;;16.67;51.55
36284;BME280;56085;48.910;9.478;2023-02-21T11:36:24;98502.94;;;16.72;51.04
36284;BME280;56085;48.910;9.478;2023-02-21T11:39:13;98491.34;;;16.77;50.48
36284;BME280;56085;48.910;9.478;2023-02-21T11:44:23;98499.34;;;17.11;49.75
36284;BME280;56085;48.910;9.478;2023-02-21T11:46:49;98487.75;;;17.27;49.53
36284;BME280;56085;48.910;9.478;2023-02-21T11:51:57;98482.94;;;17.42;48.72
36284;BME280;56085;48.910;9.478;2023-02-21T11:54:27;98481.69;;;17.65;48.21
36284;BME280;56085;48.910;9.478;2023-02-21T11:56:59;98478.81;;;17.93;48.01
36284;BME280;56085;48.910;9.478;2023-02-21T11:59:45;98460.84;;;17.87;47.54
36284;BME280;56085;48.910;9.478;2023-02-21T12:02:19;98456.69;;;18.21;47.32
36284;BME280;56085;48.910;9.478;2023-02-21T12:07:33;98443.47;;;18.28;46.48
36284;BME280;56085;48.910;9.478;2023-02-21T12:12:45;98443.19;;;18.64;45.80
36284;BME280;56085;48.910;9.478;2023-02-21T12:17:56;98434.72;;;19.21;45.03
36284;BME280;56085;48.910;9.478;2023-02-21T12:20:27;98428.44;;;19.82;44.77
36284;BME280;56085;48.910;9.478;2023-02-21T12:23:00;98411.59;;;20.64;44.29
36284;BME280;56085;48.910;9.478;2023-02-21T12:25:37;98416.91;;;21.29;43.73
36284;BME280;56085;48.910;9.478;2023-02-21T12:28:20;98435.66;;;24.71;43.24
36284;BME280;56085;48.910;9.478;2023-02-21T12:33:42;98424.88;;;34.80;40.52
36284;BME280;56085;48.910;9.478;2023-02-21T12:43:43;98393.44;;;40.27;33.53
36284;BME280;56085;48.910;9.478;2023-02-21T12:51:08;98416.63;;;41.79;29.58
36284;BME280;56085;48.910;9.478;2023-02-21T12:53:48;98339.53;;;41.55;28.12
36284;BME280;56085;48.910;9.478;2023-02-21T12:56:17;98398.16;;;42.20;26.88
36284;BME280;56085;48.910;9.478;2023-02-21T12:58:46;98353.84;;;43.15;26.05
36284;BME280;56085;48.910;9.478;2023-02-21T13:01:14;98313.44;;;44.00;24.90
36284;BME280;56085;48.910;9.478;2023-02-21T13:03:53;98323.66;;;44.52;23.95
36284;BME280;56085;48.910;9.478;2023-02-21T13:06:24;98347.88;;;44.11;22.89
36284;BME280;56085;48.910;9.478;2023-02-21T13:09:02;98349.38;;;44.45;22.04
36284;BME280;56085;48.910;9.478;2023-02-21T13:11:36;98290.78;;;43.91;21.27
36284;BME280;56085;48.910;9.478;2023-02-21T13:14:06;98324.00;;;44.38;20.65
36284;BME280;56085;48.910;9.478;2023-02-21T13:16:33;98332.66;;;45.34;19.79
36284;BME280;56085;48.910;9.478;2023-02-21T13:18:59;98297.34;;;45.57;19.29
36284;BME280;56085;48.910;9.478;2023-02-21T13:23:56;98298.63;;;46.00;17.87
36284;BME280;56085;48.910;9.478;2023-02-21T13:28:52;98296.13;;;46.54;16.90
36284;BME280;56085;48.910;9.478;2023-02-21T13:31:22;98270.34;;;46.03;16.65
36284;BME280;56085;48.910;9.478;2023-02-21T13:33:52;98294.03;;;46.83;16.03
36284;BME280;56085;48.910;9.478;2023-02-21T13:36:20;98271.22;;;47.11;15.67
36284;BME280;56085;48.910;9.478;2023-02-21T13:38:55;98276.31;;;46.91;15.17
36284;BME280;56085;48.910;9.478;2023-02-21T13:41:23;98260.75;;;45.83;14.95
36284;BME280;56085;48.910;9.478;2023-02-21T13:43:50;98228.97;;;46.07;14.34
36284;BME280;56085;48.910;9.478;2023-02-21T13:49:35;98222.50;;;45.89;13.79
36284;BME280;56085;48.910;9.478;2023-02-21T13:54:27;98264.22;;;46.18;13.22
36284;BME280;56085;48.910;9.478;2023-02-21T13:56:52;98246.13;;;46.30;13.26
36284;BME280;56085;48.910;9.478;2023-02-21T13:59:38;98206.28;;;45.68;12.86
36284;BME280;56085;48.910;9.478;2023-02-21T14:02:15;98222.88;;;44.93;12.84
36284;BME280;56085;48.910;9.478;2023-02-21T14:07:12;98197.47;;;45.58;12.50
36284;BME280;56085;48.910;9.478;2023-02-21T14:09:38;98210.50;;;44.75;12.47
36284;BME280;56085;48.910;9.478;2023-02-21T14:12:04;98196.72;;;45.30;11.97
36284;BME280;56085;48.910;9.478;2023-02-21T14:14:31;98174.16;;;45.31;11.93
36284;BME280;56085;48.910;9.478;2023-02-21T14:17:02;98152.81;;;45.75;12.04
36284;BME280;56085;48.910;9.478;2023-02-21T14:24:28;98129.22;;;44.62;11.76
36284;BME280;56085;48.910;9.478;2023-02-21T14:26:55;98184.72;;;44.37;11.79
36284;BME280;56085;48.910;9.478;2023-02-21T14:39:46;98176.63;;;43.17;11.30
36284;BME280;56085;48.910;9.478;2023-02-21T14:55:33;98101.06;;;41.48;11.57
36284;BME280;56085;48.910;9.478;2023-02-21T15:02:53;98133.16;;;33.79;12.18
36284;BME280;56085;48.910;9.478;2023-02-21T15:06:06;98135.28;;;32.99;12.23
36284;BME280;56085;48.910;9.478;2023-02-21T15:10:39;98130.16;;;32.20;13.11
36284;BME280;56085;48.910;9.478;2023-02-21T15:13:05;98119.31;;;31.11;13.44
36284;BME280;56085;48.910;9.478;2023-02-21T15:15:33;98120.06;;;30.80;13.50
36284;BME280;56085;48.910;9.478;2023-02-21T15:18:03;98120.69;;;30.22;13.74